createdAt,value
2022-11-27T00:01:38.153Z,0.61
2022-11-27T00:04:08.704Z,1.00
2022-11-27T00:06:40.921Z,1.53
2022-11-27T00:09:12.910Z,1.61
2022-11-27T00:11:42.094Z,1.51
2022-11-27T00:14:13.808Z,1.11
2022-11-27T00:16:43.284Z,0.89
2022-11-27T00:19:12.761Z,1.43
2022-11-27T00:21:43.212Z,1.47
2022-11-27T00:24:13.146Z,1.14
2022-11-27T00:26:42.596Z,1.42
2022-11-27T00:29:11.764Z,0.99
2022-11-27T00:31:40.708Z,0.84
2022-11-27T00:34:11.675Z,1.05
2022-11-27T00:36:46.638Z,1.06
2022-11-27T00:39:17.189Z,1.23
2022-11-27T00:41:46.850Z,1.18
2022-11-27T00:44:16.105Z,1.24
2022-11-27T00:46:45.284Z,1.09
2022-11-27T00:49:16.040Z,1.22
2022-11-27T00:51:46.426Z,0.30
2022-11-27T00:54:15.550Z,1.33
2022-11-27T00:56:44.522Z,0.58
2022-11-27T00:59:13.607Z,1.13
2022-11-27T01:01:44.827Z,1.02
2022-11-27T01:04:19.192Z,1.43
2022-11-27T01:06:49.472Z,1.46
2022-11-27T01:09:18.531Z,1.11
2022-11-27T01:11:50.048Z,1.47
2022-11-27T01:14:19.898Z,1.57
2022-11-27T01:16:48.741Z,1.30
2022-11-27T01:19:18.066Z,1.35
2022-11-27T01:21:47.531Z,0.76
2022-11-27T01:24:18.184Z,1.15
2022-11-27T01:26:47.676Z,0.83
2022-11-27T01:29:16.792Z,1.19
2022-11-27T01:31:45.886Z,1.50
2022-11-27T01:34:17.408Z,1.47
2022-11-27T01:36:52.727Z,1.32
2022-11-27T01:39:24.172Z,1.16
2022-11-27T01:41:53.330Z,1.29
2022-11-27T01:44:56.416Z,1.24
2022-11-27T01:47:39.308Z,1.19
2022-11-27T01:50:16.900Z,0.76
2022-11-27T01:52:50.767Z,0.77
2022-11-27T01:55:27.035Z,0.70
2022-11-27T01:58:00.139Z,0.76
2022-11-27T02:00:29.931Z,0.35
2022-11-27T02:02:59.948Z,1.04
2022-11-27T02:05:33.446Z,1.05
2022-11-27T02:08:10.368Z,1.02
2022-11-27T02:10:48.855Z,0.91
2022-11-27T02:13:27.140Z,0.88
2022-11-27T02:16:04.788Z,1.22
2022-11-27T02:18:40.726Z,1.30
2022-11-27T02:21:20.812Z,1.62
2022-11-27T02:24:02.297Z,0.89
2022-11-27T02:27:02.107Z,1.64
2022-11-27T02:29:35.724Z,1.11
2022-11-27T02:32:10.981Z,1.13
2022-11-27T02:34:48.536Z,0.97
2022-11-27T02:37:24.892Z,1.49
2022-11-27T02:40:00.007Z,0.99
2022-11-27T02:42:33.021Z,1.14
2022-11-27T02:45:07.028Z,1.71
2022-11-27T02:47:35.822Z,1.65
2022-11-27T02:50:06.528Z,1.58
2022-11-27T02:52:35.747Z,1.57
2022-11-27T02:55:10.385Z,1.49
2022-11-27T02:57:41.499Z,1.49
2022-11-27T03:00:13.718Z,1.75
2022-11-27T03:02:48.288Z,1.52
2022-11-27T03:05:21.764Z,1.28
2022-11-27T03:07:55.366Z,1.50
2022-11-27T03:10:30.579Z,1.43
2022-11-27T03:13:01.081Z,1.63
2022-11-27T03:15:40.823Z,1.68
2022-11-27T03:18:19.612Z,1.76
2022-11-27T03:20:52.430Z,1.65
2022-11-27T03:23:28.331Z,1.32
2022-11-27T03:25:57.259Z,1.62
2022-11-27T03:28:26.724Z,1.60
2022-11-27T03:31:21.014Z,1.53
2022-11-27T03:33:49.976Z,1.69
2022-11-27T03:36:20.614Z,0.41
2022-11-27T03:38:51.611Z,1.45
2022-11-27T03:41:26.146Z,1.59
2022-11-27T03:44:04.423Z,1.67
2022-11-27T03:47:08.154Z,1.70
2022-11-27T03:49:46.679Z,1.76
2022-11-27T03:52:25.213Z,1.43
2022-11-27T03:58:13.110Z,1.91
2022-11-27T04:00:45.098Z,1.88
2022-11-27T04:04:11.452Z,1.40
2022-11-27T04:06:45.423Z,1.46
2022-11-27T04:09:14.705Z,1.19
2022-11-27T04:11:43.960Z,1.40
2022-11-27T04:14:13.649Z,1.66
2022-11-27T04:17:10.821Z,1.71
2022-11-27T04:22:51.563Z,1.70
2022-11-27T04:25:21.240Z,1.28
2022-11-27T04:27:50.914Z,1.83
2022-11-27T04:30:20.357Z,0.27
2022-11-27T04:32:51.599Z,0.28
2022-11-27T04:35:21.753Z,1.26
2022-11-27T04:37:50.667Z,1.69
2022-11-27T04:40:20.156Z,1.20
2022-11-27T04:43:05.702Z,1.91
2022-11-27T04:46:02.498Z,-0.44
2022-11-27T04:48:43.447Z,1.92
2022-11-27T04:51:15.171Z,-0.28
2022-11-27T04:53:44.419Z,1.73
2022-11-27T04:56:13.734Z,0.96
2022-11-27T04:58:43.029Z,2.18
2022-11-27T05:01:12.294Z,0.84
2022-11-27T05:03:41.361Z,1.26
2022-11-27T05:06:10.206Z,1.30
2022-11-27T05:08:40.311Z,1.13
2022-11-27T05:11:14.242Z,0.63
2022-11-27T05:13:44.403Z,0.92
2022-11-27T05:16:13.486Z,1.92
2022-11-27T05:18:42.689Z,1.41
2022-11-27T05:21:11.859Z,1.46
2022-11-27T05:23:42.381Z,0.81
2022-11-27T05:26:11.436Z,0.67
2022-11-27T05:28:40.456Z,2.05
2022-11-27T05:31:10.761Z,0.84
2022-11-27T05:33:40.439Z,1.37
2022-11-27T05:36:10.686Z,2.58
2022-11-27T05:38:41.451Z,1.11
2022-11-27T05:41:16.161Z,2.72
2022-11-27T05:43:47.865Z,0.57
2022-11-27T05:46:20.119Z,0.38
2022-11-27T05:48:50.345Z,2.35
2022-11-27T05:51:19.872Z,2.10
2022-11-27T05:54:03.706Z,2.17
2022-11-27T05:56:37.267Z,1.85
2022-11-27T05:59:06.008Z,2.32
2022-11-27T06:01:35.169Z,1.78
2022-11-27T06:04:04.556Z,2.41
2022-11-27T06:06:35.696Z,2.04
2022-11-27T06:09:12.245Z,2.47
2022-11-27T06:11:42.965Z,2.56
2022-11-27T06:14:14.264Z,2.80
2022-11-27T06:16:43.585Z,2.43
2022-11-27T06:19:15.152Z,2.93
2022-11-27T06:21:46.627Z,2.85
2022-11-27T06:24:17.333Z,2.63
2022-11-27T06:26:46.373Z,2.72
2022-11-27T06:29:16.402Z,2.50
2022-11-27T06:31:45.590Z,2.43
2022-11-27T06:34:14.898Z,2.54
2022-11-27T06:36:47.579Z,2.85
2022-11-27T06:39:20.803Z,2.48
2022-11-27T06:41:50.979Z,2.66
2022-11-27T06:44:22.486Z,2.65
2022-11-27T06:46:55.174Z,2.02
2022-11-27T06:49:24.367Z,2.73
2022-11-27T06:51:55.546Z,2.67
2022-11-27T06:54:26.267Z,2.47
2022-11-27T06:56:55.437Z,2.40
2022-11-27T06:59:24.975Z,2.11
2022-11-27T07:01:54.647Z,2.26
2022-11-27T07:04:24.484Z,2.45
2022-11-27T07:06:55.476Z,2.51
2022-11-27T07:09:28.176Z,2.04
2022-11-27T07:11:59.742Z,2.20
2022-11-27T07:14:31.965Z,2.29
2022-11-27T07:17:01.361Z,2.21
2022-11-27T07:19:36.037Z,2.17
2022-11-27T07:22:06.184Z,2.16
2022-11-27T07:24:36.515Z,2.17
2022-11-27T07:27:05.392Z,1.86
2022-11-27T07:29:50.605Z,-0.45
2022-11-27T07:32:38.637Z,1.51
2022-11-27T07:35:18.777Z,0.66
2022-11-27T07:37:56.459Z,1.65
2022-11-27T07:40:32.869Z,1.71
2022-11-27T07:43:11.371Z,3.21
2022-11-27T07:45:41.021Z,3.02
2022-11-27T07:48:09.888Z,2.43
2022-11-27T07:50:42.128Z,1.08
2022-11-27T07:53:12.293Z,1.20
2022-11-27T07:55:44.005Z,1.65
2022-11-27T07:58:12.920Z,3.10
2022-11-27T08:00:43.108Z,3.36
2022-11-27T08:03:13.535Z,2.75
2022-11-27T08:05:44.331Z,2.29
2022-11-27T08:08:14.007Z,1.19
2022-11-27T08:10:49.106Z,2.94
2022-11-27T08:13:18.195Z,2.74
2022-11-27T08:15:48.274Z,2.56
2022-11-27T08:18:17.412Z,2.38
2022-11-27T08:20:47.432Z,3.02
2022-11-27T08:23:16.894Z,3.10
2022-11-27T08:25:47.420Z,3.01
2022-11-27T08:28:20.222Z,1.22
2022-11-27T08:30:57.346Z,3.14
2022-11-27T08:33:26.661Z,3.21
2022-11-27T08:35:55.888Z,2.70
2022-11-27T08:38:25.972Z,3.10
2022-11-27T08:40:57.282Z,3.14
2022-11-27T08:43:26.927Z,3.39
2022-11-27T08:45:56.543Z,3.30
2022-11-27T08:48:26.834Z,1.61
2022-11-27T08:50:55.996Z,3.03
2022-11-27T08:53:25.490Z,3.18
2022-11-27T08:55:54.297Z,2.90
2022-11-27T08:58:24.502Z,2.54
2022-11-27T09:00:53.947Z,3.27
2022-11-27T09:03:26.470Z,3.71
2022-11-27T09:05:55.936Z,3.67
2022-11-27T09:08:38.024Z,2.99
2022-11-27T09:11:07.276Z,3.24
2022-11-27T09:13:40.319Z,3.66
2022-11-27T09:16:11.795Z,3.44
2022-11-27T09:18:41.581Z,3.64
2022-11-27T09:21:13.537Z,3.17
2022-11-27T09:23:59.749Z,3.56
2022-11-27T09:26:33.096Z,1.42
2022-11-27T09:29:04.129Z,3.82
2022-11-27T09:31:35.988Z,3.65
2022-11-27T09:34:05.887Z,3.82
2022-11-27T09:36:35.009Z,3.85
2022-11-27T09:39:03.925Z,3.60
2022-11-27T09:41:45.396Z,3.45
2022-11-27T09:44:35.049Z,3.52
2022-11-27T09:47:12.994Z,3.35
2022-11-27T09:49:47.132Z,3.34
2022-11-27T09:52:22.789Z,3.66
2022-11-27T09:54:57.309Z,3.52
2022-11-27T09:57:33.121Z,3.13
2022-11-27T10:00:06.190Z,3.54
2022-11-27T10:02:36.987Z,3.19
2022-11-27T10:05:15.307Z,3.31
2022-11-27T10:08:06.666Z,3.34
2022-11-27T10:10:44.993Z,3.16
2022-11-27T10:13:33.775Z,3.64
2022-11-27T10:16:09.673Z,3.37
2022-11-27T10:18:47.091Z,3.23
2022-11-27T10:21:21.175Z,3.91
2022-11-27T10:23:57.579Z,3.68
2022-11-27T10:26:33.144Z,3.33
2022-11-27T10:29:14.019Z,2.23
2022-11-27T10:31:51.193Z,2.90
2022-11-27T10:34:31.947Z,3.75
2022-11-27T10:37:06.949Z,3.02
2022-11-27T10:39:41.328Z,3.52
2022-11-27T10:42:17.665Z,3.51
2022-11-27T10:44:52.142Z,3.34
2022-11-27T10:47:29.707Z,3.60
2022-11-27T10:50:01.725Z,3.68
2022-11-27T10:52:30.773Z,3.32
2022-11-27T10:55:04.105Z,3.57
2022-11-27T10:57:59.134Z,3.76
2022-11-27T11:00:28.236Z,3.31
2022-11-27T11:03:03.910Z,3.34
2022-11-27T11:08:24.860Z,3.56
2022-11-27T11:10:58.716Z,3.54
2022-11-27T11:13:29.857Z,3.50
2022-11-27T11:16:01.527Z,2.72
2022-11-27T11:18:34.307Z,3.27
2022-11-27T11:21:10.601Z,3.25
2022-11-27T11:23:42.341Z,2.95
2022-11-27T11:26:25.914Z,3.11
2022-11-27T11:29:05.520Z,3.29
2022-11-27T11:31:38.462Z,3.70
2022-11-27T11:34:21.966Z,3.89
2022-11-27T11:36:58.841Z,3.79
2022-11-27T11:39:30.543Z,3.51
2022-11-27T11:41:59.401Z,3.30
2022-11-27T11:44:34.000Z,3.50
2022-11-27T11:47:02.863Z,3.66
2022-11-27T11:49:41.492Z,3.80
2022-11-27T11:52:25.224Z,3.78
2022-11-27T11:55:01.586Z,3.50
2022-11-27T11:57:51.700Z,1.99
2022-11-27T12:00:28.201Z,0.98
2022-11-27T12:03:15.111Z,0.67
2022-11-27T12:05:56.741Z,1.46
2022-11-27T12:08:52.472Z,0.53
2022-11-27T12:11:44.791Z,3.08
2022-11-27T12:14:28.410Z,3.45
2022-11-27T12:17:22.204Z,3.84
2022-11-27T12:20:13.195Z,3.66
2022-11-27T12:23:37.265Z,4.03
2022-11-27T12:26:21.300Z,3.76
2022-11-27T12:29:15.781Z,2.10
2022-11-27T12:32:00.554Z,3.95
2022-11-27T12:34:43.532Z,4.11
2022-11-27T12:37:30.101Z,3.54
2022-11-27T12:40:46.513Z,4.14
2022-11-27T12:44:35.194Z,3.71
2022-11-27T12:47:15.745Z,3.91
2022-11-27T12:49:49.463Z,2.97
2022-11-27T12:52:22.224Z,4.02
2022-11-27T12:54:55.065Z,3.86
2022-11-27T12:57:33.202Z,4.12
2022-11-27T13:00:22.984Z,3.95
2022-11-27T13:03:11.628Z,2.38
2022-11-27T13:05:46.334Z,3.60
2022-11-27T13:08:19.943Z,4.71
2022-11-27T13:10:55.545Z,3.57
2022-11-27T13:13:33.560Z,4.61
2022-11-27T13:16:11.481Z,2.89
2022-11-27T13:18:45.370Z,2.41
2022-11-27T13:21:25.987Z,2.40
2022-11-27T13:23:55.989Z,4.32
2022-11-27T13:26:30.585Z,4.24
2022-11-27T13:29:03.910Z,3.66
2022-11-27T13:31:37.692Z,3.06
2022-11-27T13:34:09.523Z,3.55
2022-11-27T13:36:43.050Z,2.85
2022-11-27T13:39:37.877Z,3.21
2022-11-27T13:42:23.377Z,2.37
2022-11-27T13:44:59.876Z,3.92
2022-11-27T13:47:37.743Z,1.61
2022-11-27T13:50:10.551Z,3.60
2022-11-27T13:52:54.843Z,3.68
2022-11-27T13:55:27.549Z,0.67
2022-11-27T13:57:58.532Z,3.99
2022-11-27T14:00:38.234Z,4.33
2022-11-27T14:03:12.880Z,4.35
2022-11-27T14:05:46.299Z,3.76
2022-11-27T14:08:20.831Z,3.58
2022-11-27T14:10:54.320Z,4.21
2022-11-27T14:13:27.517Z,2.90
2022-11-27T14:16:02.750Z,3.49
2022-11-27T14:18:32.414Z,3.62
2022-11-27T14:21:05.801Z,3.61
2022-11-27T14:23:38.245Z,3.50
2022-11-27T14:26:20.018Z,3.06
2022-11-27T14:28:53.164Z,3.32
2022-11-27T14:31:39.855Z,3.22
2022-11-27T14:34:28.044Z,1.35
2022-11-27T14:37:30.623Z,3.35
2022-11-27T14:40:25.551Z,3.72
2022-11-27T14:42:55.878Z,2.26
2022-11-27T14:45:24.982Z,1.72
2022-11-27T14:48:28.346Z,3.67
2022-11-27T14:51:27.929Z,2.24
2022-11-27T14:55:03.525Z,3.79
2022-11-27T14:57:35.200Z,4.15
2022-11-27T15:00:20.745Z,3.79
2022-11-27T15:02:53.412Z,2.04
2022-11-27T15:05:49.240Z,3.88
2022-11-27T15:08:19.859Z,3.03
2022-11-27T15:10:49.316Z,2.05
2022-11-27T15:13:30.413Z,2.83
2022-11-27T15:16:04.680Z,2.22
2022-11-27T15:18:37.292Z,2.02
2022-11-27T15:21:14.235Z,3.04
2022-11-27T15:23:48.097Z,2.03
2022-11-27T15:26:32.796Z,3.20
2022-11-27T15:29:05.058Z,2.73
2022-11-27T15:31:37.535Z,2.21
2022-11-27T15:34:23.991Z,4.03
2022-11-27T15:37:01.688Z,3.88
2022-11-27T15:39:38.750Z,1.84
2022-11-27T15:42:14.692Z,2.36
2022-11-27T15:44:48.685Z,3.54
2022-11-27T15:47:54.588Z,2.38
2022-11-27T15:50:21.904Z,1.81
2022-11-27T15:53:13.469Z,3.71
2022-11-27T15:55:45.390Z,1.92
2022-11-27T15:58:15.034Z,0.95
2022-11-27T16:00:44.098Z,3.53
2022-11-27T16:03:14.408Z,3.52
2022-11-27T16:05:48.979Z,2.44
2022-11-27T16:08:48.350Z,3.70
2022-11-27T16:11:19.748Z,3.45
2022-11-27T16:13:49.267Z,2.00
2022-11-27T22:08:50.302Z,0.20
2022-11-27T22:11:21.927Z,-0.35
2022-11-27T22:13:52.192Z,2.31
2022-11-27T22:16:26.719Z,1.68
2022-11-27T22:18:57.323Z,2.24
2022-11-27T22:21:28.510Z,1.58
2022-11-27T22:23:59.948Z,2.46
2022-11-27T22:26:30.203Z,2.67
2022-11-27T22:29:00.904Z,0.32
2022-11-27T22:31:33.146Z,2.98
2022-11-27T22:34:03.100Z,1.46
2022-11-27T22:36:34.199Z,3.47
2022-11-27T22:39:07.953Z,3.13
2022-11-27T22:41:40.116Z,2.88
2022-11-27T22:44:12.179Z,2.09
2022-11-27T22:46:42.966Z,3.46
2022-11-27T22:49:15.257Z,1.27
2022-11-27T22:51:46.335Z,3.24
2022-11-27T22:54:18.014Z,3.10
2022-11-27T22:56:48.430Z,2.67
2022-11-27T22:59:34.670Z,2.90
2022-11-27T23:02:07.574Z,3.53
2022-11-27T23:04:38.874Z,3.68
2022-11-27T23:07:08.477Z,3.57
2022-11-27T23:09:39.258Z,3.82
2022-11-27T23:12:08.451Z,3.24
2022-11-27T23:14:42.091Z,3.74
2022-11-27T23:17:11.547Z,3.39
2022-11-27T23:19:41.044Z,3.35
2022-11-27T23:22:09.949Z,2.60
2022-11-27T23:24:40.879Z,3.14
2022-11-27T23:27:09.977Z,3.29
2022-11-27T23:29:38.997Z,3.40
2022-11-27T23:32:08.221Z,3.32
2022-11-27T23:34:37.550Z,3.53
2022-11-27T23:37:06.984Z,3.22
2022-11-27T23:39:35.786Z,3.30
2022-11-27T23:42:06.436Z,2.79
2022-11-27T23:44:36.350Z,2.86
2022-11-27T23:47:06.713Z,2.93
2022-11-27T23:49:35.828Z,2.60
2022-11-27T23:52:05.311Z,3.10
2022-11-27T23:54:34.543Z,3.17
2022-11-27T23:57:04.922Z,3.05
2022-11-27T23:59:35.358Z,2.87
